sensor_id;sensor_type;location;lat;lon;timestamp;pressure;altitude;pressure_sealevel;temperature;humidity
65614;BME280;52283;49.292;10.572;2023-04-28T00:00:12;96439.78;;;9.09;100.00
65614;BME280;52283;49.292;10.572;2023-04-28T00:02:38;96432.13;;;9.04;100.00
65614;BME280;52283;49.292;10.572;2023-04-28T00:05:06;96432.50;;;9.17;100.00
65614;BME280;52283;49.292;10.572;2023-04-28T00:07:32;96425.34;;;9.10;100.00
65614;BME280;52283;49.292;10.572;2023-04-28T00:09:59;96440.88;;;9.17;100.00
65614;BME280;52283;49.292;10.572;2023-04-28T00:12:26;96431.41;;;9.09;100.00
65614;BME280;52283;49.292;10.572;2023-04-28T00:14:53;96425.50;;;8.96;100.00
65614;BME280;52283;49.292;10.572;2023-04-28T00:17:20;96429.50;;;8.95;100.00
65614;BME280;52283;49.292;10.572;2023-04-28T00:19:46;96430.56;;;8.97;100.00
65614;BME280;52283;49.292;10.572;2023-04-28T00:22:13;96424.56;;;9.10;100.00
65614;BME280;52283;49.292;10.572;2023-04-28T00:24:40;96421.47;;;9.02;100.00
65614;BME280;52283;49.292;10.572;2023-04-28T00:27:07;96415.50;;;9.15;100.00
65614;BME280;52283;49.292;10.572;2023-04-28T00:29:34;96409.91;;;9.15;100.00
65614;BME280;52283;49.292;10.572;2023-04-28T00:32:02;96404.84;;;9.13;100.00
65614;BME280;52283;49.292;10.572;2023-04-28T00:34:31;96388.06;;;9.08;100.00
65614;BME280;52283;49.292;10.572;2023-04-28T00:36:58;96377.16;;;9.41;97.42
65614;BME280;52283;49.292;10.572;2023-04-28T00:39:24;96376.78;;;9.23;96.67
65614;BME280;52283;49.292;10.572;2023-04-28T00:41:52;96366.19;;;9.32;94.36
65614;BME280;52283;49.292;10.572;2023-04-28T00:44:18;96367.81;;;9.44;94.99
65614;BME280;52283;49.292;10.572;2023-04-28T00:46:46;96362.00;;;9.54;95.11
65614;BME280;52283;49.292;10.572;2023-04-28T00:49:14;96359.34;;;9.33;94.65
65614;BME280;52283;49.292;10.572;2023-04-28T00:51:41;96356.16;;;9.52;93.93
65614;BME280;52283;49.292;10.572;2023-04-28T00:54:08;96365.91;;;9.67;92.95
65614;BME280;52283;49.292;10.572;2023-04-28T00:56:38;96356.28;;;9.74;92.22
65614;BME280;52283;49.292;10.572;2023-04-28T00:59:04;96355.97;;;9.61;93.11
65614;BME280;52283;49.292;10.572;2023-04-28T01:01:31;96351.16;;;9.61;92.83
65614;BME280;52283;49.292;10.572;2023-04-28T01:03:59;96345.94;;;9.80;93.40
65614;BME280;52283;49.292;10.572;2023-04-28T01:06:26;96345.44;;;9.93;92.28
65614;BME280;52283;49.292;10.572;2023-04-28T01:08:54;96345.63;;;9.78;92.18
65614;BME280;52283;49.292;10.572;2023-04-28T01:11:21;96346.72;;;9.92;94.04
65614;BME280;52283;49.292;10.572;2023-04-28T01:13:47;96343.31;;;9.65;94.49
65614;BME280;52283;49.292;10.572;2023-04-28T01:16:14;96337.31;;;9.89;95.68
65614;BME280;52283;49.292;10.572;2023-04-28T01:18:41;96335.78;;;9.88;95.34
65614;BME280;52283;49.292;10.572;2023-04-28T01:21:13;96337.34;;;9.95;95.61
65614;BME280;52283;49.292;10.572;2023-04-28T01:23:39;96344.41;;;9.85;96.09
65614;BME280;52283;49.292;10.572;2023-04-28T01:26:07;96342.31;;;9.68;97.93
65614;BME280;52283;49.292;10.572;2023-04-28T01:28:34;96343.78;;;9.58;99.88
65614;BME280;52283;49.292;10.572;2023-04-28T01:31:00;96333.44;;;9.75;100.00
65614;BME280;52283;49.292;10.572;2023-04-28T01:33:26;96346.63;;;9.69;100.00
65614;BME280;52283;49.292;10.572;2023-04-28T01:35:56;96347.13;;;9.68;100.00
65614;BME280;52283;49.292;10.572;2023-04-28T01:38:22;96341.81;;;9.75;100.00
65614;BME280;52283;49.292;10.572;2023-04-28T01:40:49;96337.06;;;9.82;99.18
65614;BME280;52283;49.292;10.572;2023-04-28T01:43:17;96339.69;;;9.54;99.63
65614;BME280;52283;49.292;10.572;2023-04-28T01:45:43;96330.66;;;9.75;99.16
65614;BME280;52283;49.292;10.572;2023-04-28T01:48:10;96334.72;;;9.74;100.00
65614;BME280;52283;49.292;10.572;2023-04-28T01:50:36;96333.53;;;9.98;99.40
65614;BME280;52283;49.292;10.572;2023-04-28T01:53:03;96325.47;;;10.11;97.05
65614;BME280;52283;49.292;10.572;2023-04-28T01:55:29;96331.00;;;9.94;98.33
65614;BME280;52283;49.292;10.572;2023-04-28T01:57:55;96324.41;;;9.97;99.31
65614;BME280;52283;49.292;10.572;2023-04-28T02:00:24;96320.25;;;9.76;100.00
65614;BME280;52283;49.292;10.572;2023-04-28T02:02:51;96323.03;;;9.70;100.00
65614;BME280;52283;49.292;10.572;2023-04-28T02:05:18;96313.63;;;9.62;100.00
65614;BME280;52283;49.292;10.572;2023-04-28T02:07:44;96324.41;;;9.97;100.00
65614;BME280;52283;49.292;10.572;2023-04-28T02:10:11;96331.03;;;10.00;100.00
65614;BME280;52283;49.292;10.572;2023-04-28T02:12:38;96333.03;;;9.99;100.00
65614;BME280;52283;49.292;10.572;2023-04-28T02:15:07;96318.34;;;10.10;100.00
65614;BME280;52283;49.292;10.572;2023-04-28T02:17:35;96330.41;;;9.73;100.00
65614;BME280;52283;49.292;10.572;2023-04-28T02:20:01;96321.53;;;9.75;100.00
65614;BME280;52283;49.292;10.572;2023-04-28T02:22:29;96319.81;;;9.94;100.00
65614;BME280;52283;49.292;10.572;2023-04-28T02:24:56;96317.72;;;9.78;100.00
65614;BME280;52283;49.292;10.572;2023-04-28T02:27:22;96313.13;;;9.69;100.00
65614;BME280;52283;49.292;10.572;2023-04-28T02:29:49;96309.53;;;9.58;100.00
65614;BME280;52283;49.292;10.572;2023-04-28T02:32:15;96303.16;;;9.46;100.00
65614;BME280;52283;49.292;10.572;2023-04-28T02:34:43;96297.66;;;9.63;100.00
65614;BME280;52283;49.292;10.572;2023-04-28T02:37:10;96296.81;;;9.45;100.00
65614;BME280;52283;49.292;10.572;2023-04-28T02:39:36;96294.84;;;9.63;100.00
65614;BME280;52283;49.292;10.572;2023-04-28T02:42:04;96301.22;;;9.74;100.00
65614;BME280;52283;49.292;10.572;2023-04-28T02:44:30;96293.84;;;9.66;100.00
65614;BME280;52283;49.292;10.572;2023-04-28T02:46:57;96285.22;;;9.58;100.00
65614;BME280;52283;49.292;10.572;2023-04-28T02:49:23;96278.38;;;9.70;100.00
65614;BME280;52283;49.292;10.572;2023-04-28T02:51:51;96282.69;;;9.60;100.00
65614;BME280;52283;49.292;10.572;2023-04-28T02:54:17;96275.41;;;9.80;100.00
65614;BME280;52283;49.292;10.572;2023-04-28T02:56:51;96265.47;;;9.78;100.00
65614;BME280;52283;49.292;10.572;2023-04-28T02:59:17;96265.75;;;9.86;100.00
65614;BME280;52283;49.292;10.572;2023-04-28T03:01:44;96263.50;;;9.96;100.00
65614;BME280;52283;49.292;10.572;2023-04-28T03:04:10;96263.03;;;10.08;100.00
65614;BME280;52283;49.292;10.572;2023-04-28T03:06:37;96256.69;;;10.02;100.00
65614;BME280;52283;49.292;10.572;2023-04-28T03:09:05;96259.88;;;9.78;100.00
65614;BME280;52283;49.292;10.572;2023-04-28T03:11:32;96261.25;;;10.00;100.00
65614;BME280;52283;49.292;10.572;2023-04-28T03:13:58;96254.09;;;9.93;100.00
65614;BME280;52283;49.292;10.572;2023-04-28T03:16:25;96245.69;;;9.76;100.00
65614;BME280;52283;49.292;10.572;2023-04-28T03:18:52;96243.94;;;9.85;100.00
65614;BME280;52283;49.292;10.572;2023-04-28T03:21:18;96240.84;;;9.77;100.00
65614;BME280;52283;49.292;10.572;2023-04-28T03:23:45;96238.09;;;9.88;100.00
65614;BME280;52283;49.292;10.572;2023-04-28T03:26:12;96238.09;;;9.88;100.00
65614;BME280;52283;49.292;10.572;2023-04-28T03:28:39;96235.53;;;9.73;100.00
65614;BME280;52283;49.292;10.572;2023-04-28T03:31:05;96234.25;;;9.74;100.00
65614;BME280;52283;49.292;10.572;2023-04-28T03:33:32;96236.34;;;9.85;100.00
65614;BME280;52283;49.292;10.572;2023-04-28T03:35:58;96234.84;;;10.18;100.00
65614;BME280;52283;49.292;10.572;2023-04-28T03:38:25;96240.50;;;10.23;100.00
65614;BME280;52283;49.292;10.572;2023-04-28T03:40:52;96236.69;;;10.21;100.00
65614;BME280;52283;49.292;10.572;2023-04-28T03:43:20;96240.94;;;10.16;100.00
65614;BME280;52283;49.292;10.572;2023-04-28T03:45:46;96231.09;;;10.21;100.00
65614;BME280;52283;49.292;10.572;2023-04-28T03:48:13;96232.56;;;10.05;100.00
65614;BME280;52283;49.292;10.572;2023-04-28T03:50:40;96230.72;;;9.74;100.00
65614;BME280;52283;49.292;10.572;2023-04-28T03:53:07;96232.03;;;9.90;100.00
65614;BME280;52283;49.292;10.572;2023-04-28T03:55:34;96230.25;;;9.81;100.00
65614;BME280;52283;49.292;10.572;2023-04-28T03:58:00;96216.84;;;10.02;100.00
65614;BME280;52283;49.292;10.572;2023-04-28T04:00:28;96211.22;;;9.91;100.00
65614;BME280;52283;49.292;10.572;2023-04-28T04:02:54;96217.09;;;10.04;100.00
65614;BME280;52283;49.292;10.572;2023-04-28T04:05:21;96210.78;;;10.31;100.00
65614;BME280;52283;49.292;10.572;2023-04-28T04:07:47;96212.31;;;10.21;100.00
65614;BME280;52283;49.292;10.572;2023-04-28T04:10:14;96222.72;;;10.21;100.00
65614;BME280;52283;49.292;10.572;2023-04-28T04:12:40;96225.00;;;10.28;100.00
65614;BME280;52283;49.292;10.572;2023-04-28T04:15:08;96231.84;;;10.38;100.00
65614;BME280;52283;49.292;10.572;2023-04-28T04:17:36;96232.88;;;10.35;100.00
65614;BME280;52283;49.292;10.572;2023-04-28T04:20:03;96230.06;;;10.41;100.00
65614;BME280;52283;49.292;10.572;2023-04-28T04:22:29;96225.75;;;10.56;100.00
65614;BME280;52283;49.292;10.572;2023-04-28T04:24:56;96219.38;;;10.61;100.00
65614;BME280;52283;49.292;10.572;2023-04-28T04:27:22;96220.91;;;10.57;100.00
65614;BME280;52283;49.292;10.572;2023-04-28T04:29:49;96211.25;;;10.75;100.00
65614;BME280;52283;49.292;10.572;2023-04-28T04:32:15;96210.75;;;10.59;100.00
65614;BME280;52283;49.292;10.572;2023-04-28T04:34:43;96213.28;;;10.74;100.00
65614;BME280;52283;49.292;10.572;2023-04-28T04:37:10;96221.13;;;10.81;100.00
65614;BME280;52283;49.292;10.572;2023-04-28T04:39:36;96221.66;;;10.85;100.00
65614;BME280;52283;49.292;10.572;2023-04-28T04:42:03;96215.56;;;10.76;100.00
65614;BME280;52283;49.292;10.572;2023-04-28T04:44:29;96217.34;;;10.73;100.00
65614;BME280;52283;49.292;10.572;2023-04-28T04:46:56;96223.44;;;10.77;100.00
65614;BME280;52283;49.292;10.572;2023-04-28T04:49:22;96219.88;;;10.82;100.00
65614;BME280;52283;49.292;10.572;2023-04-28T04:51:50;96219.38;;;10.89;100.00
65614;BME280;52283;49.292;10.572;2023-04-28T04:54:17;96216.31;;;10.82;100.00
65614;BME280;52283;49.292;10.572;2023-04-28T04:56:43;96220.13;;;10.90;100.00
65614;BME280;52283;49.292;10.572;2023-04-28T04:59:10;96229.78;;;10.89;100.00
65614;BME280;52283;49.292;10.572;2023-04-28T05:01:36;96223.19;;;10.81;100.00
65614;BME280;52283;49.292;10.572;2023-04-28T05:04:03;96230.06;;;10.85;100.00
65614;BME280;52283;49.292;10.572;2023-04-28T05:06:29;96222.94;;;10.84;100.00
65614;BME280;52283;49.292;10.572;2023-04-28T05:08:57;96217.34;;;10.79;100.00
65614;BME280;52283;49.292;10.572;2023-04-28T05:11:24;96224.44;;;10.91;100.00
65614;BME280;52283;49.292;10.572;2023-04-28T05:13:50;96223.94;;;10.92;100.00
65614;BME280;52283;49.292;10.572;2023-04-28T05:16:17;96229.03;;;10.88;100.00
65614;BME280;52283;49.292;10.572;2023-04-28T05:18:43;96221.41;;;10.78;100.00
65614;BME280;52283;49.292;10.572;2023-04-28T05:21:10;96230.81;;;10.80;100.00
65614;BME280;52283;49.292;10.572;2023-04-28T05:23:36;96225.22;;;10.80;100.00
65614;BME280;52283;49.292;10.572;2023-04-28T05:26:04;96223.69;;;10.79;100.00
65614;BME280;52283;49.292;10.572;2023-04-28T05:28:31;96225.97;;;10.81;100.00
65614;BME280;52283;49.292;10.572;2023-04-28T05:30:58;96225.75;;;10.73;100.00
65614;BME280;52283;49.292;10.572;2023-04-28T05:33:24;96214.84;;;10.42;100.00
65614;BME280;52283;49.292;10.572;2023-04-28T05:35:51;96212.56;;;10.34;100.00
65614;BME280;52283;49.292;10.572;2023-04-28T05:38:18;96201.84;;;10.05;100.00
65614;BME280;52283;49.292;10.572;2023-04-28T05:40:44;96199.34;;;10.29;100.00
65614;BME280;52283;49.292;10.572;2023-04-28T05:43:12;96197.03;;;10.11;100.00
65614;BME280;52283;49.292;10.572;2023-04-28T05:45:38;96199.34;;;10.41;100.00
65614;BME280;52283;49.292;10.572;2023-04-28T05:48:05;96195.31;;;10.42;100.00
65614;BME280;52283;49.292;10.572;2023-04-28T05:50:32;96197.31;;;10.47;100.00
65614;BME280;52283;49.292;10.572;2023-04-28T05:52:58;96200.38;;;10.49;100.00
65614;BME280;52283;49.292;10.572;2023-04-28T05:55:24;96202.91;;;10.47;100.00
65614;BME280;52283;49.292;10.572;2023-04-28T05:57:52;96198.31;;;10.55;100.00
65614;BME280;52283;49.292;10.572;2023-04-28T06:00:20;96192.50;;;10.47;100.00
65614;BME280;52283;49.292;10.572;2023-04-28T06:02:46;96197.81;;;10.51;100.00
65614;BME280;52283;49.292;10.572;2023-04-28T06:05:13;96188.41;;;10.54;100.00
65614;BME280;52283;49.292;10.572;2023-04-28T06:07:40;96177.00;;;10.46;100.00
65614;BME280;52283;49.292;10.572;2023-04-28T06:10:07;96178.28;;;10.45;100.00
65614;BME280;52283;49.292;10.572;2023-04-28T06:12:34;96176.97;;;10.57;100.00
65614;BME280;52283;49.292;10.572;2023-04-28T06:15:00;96183.34;;;10.63;100.00
65614;BME280;52283;49.292;10.572;2023-04-28T06:17:28;96192.72;;;10.72;100.00
65614;BME280;52283;49.292;10.572;2023-04-28T06:19:56;96190.91;;;10.85;100.00
65614;BME280;52283;49.292;10.572;2023-04-28T06:22:23;96188.16;;;10.68;100.00
65614;BME280;52283;49.292;10.572;2023-04-28T06:24:50;96183.09;;;10.50;100.00
65614;BME280;52283;49.292;10.572;2023-04-28T06:27:16;96189.16;;;10.60;100.00
65614;BME280;52283;49.292;10.572;2023-04-28T06:29:43;96187.63;;;10.59;100.00
65614;BME280;52283;49.292;10.572;2023-04-28T06:32:09;96198.03;;;10.75;100.00
65614;BME280;52283;49.292;10.572;2023-04-28T06:34:37;96193.47;;;10.78;100.00
65614;BME280;52283;49.292;10.572;2023-04-28T06:37:04;96182.06;;;10.64;100.00
65614;BME280;52283;49.292;10.572;2023-04-28T06:39:30;96194.25;;;10.56;100.00
65614;BME280;52283;49.292;10.572;2023-04-28T06:41:57;96186.91;;;10.42;100.00
65614;BME280;52283;49.292;10.572;2023-04-28T06:44:23;96183.63;;;10.26;100.00
65614;BME280;52283;49.292;10.572;2023-04-28T06:46:50;96189.91;;;10.60;100.00
65614;BME280;52283;49.292;10.572;2023-04-28T06:49:16;96173.44;;;10.46;100.00
65614;BME280;52283;49.292;10.572;2023-04-28T06:51:44;96177.75;;;10.47;100.00
65614;BME280;52283;49.292;10.572;2023-04-28T06:54:10;96179.28;;;10.53;100.00
65614;BME280;52283;49.292;10.572;2023-04-28T06:56:37;96169.41;;;10.30;100.00
65614;BME280;52283;49.292;10.572;2023-04-28T06:59:04;96167.63;;;10.32;100.00
65614;BME280;52283;49.292;10.572;2023-04-28T07:01:30;96149.56;;;10.39;100.00
65614;BME280;52283;49.292;10.572;2023-04-28T07:03:57;96144.25;;;10.07;100.00
65614;BME280;52283;49.292;10.572;2023-04-28T07:06:23;96150.84;;;10.38;100.00
65614;BME280;52283;49.292;10.572;2023-04-28T07:08:53;96143.72;;;10.37;100.00
65614;BME280;52283;49.292;10.572;2023-04-28T07:11:20;96142.44;;;10.16;100.00
65614;BME280;52283;49.292;10.572;2023-04-28T07:13:47;96143.22;;;10.11;100.00
65614;BME280;52283;49.292;10.572;2023-04-28T07:16:16;96152.63;;;10.35;100.00
65614;BME280;52283;49.292;10.572;2023-04-28T07:18:42;96158.22;;;10.30;100.00
65614;BME280;52283;49.292;10.572;2023-04-28T07:21:09;96169.91;;;10.34;100.00
65614;BME280;52283;49.292;10.572;2023-04-28T07:23:35;96168.13;;;10.48;100.00
65614;BME280;52283;49.292;10.572;2023-04-28T07:26:04;96155.91;;;10.06;100.00
65614;BME280;52283;49.292;10.572;2023-04-28T07:28:30;96166.56;;;9.96;100.00
65614;BME280;52283;49.292;10.572;2023-04-28T07:30:57;96171.63;;;9.98;100.00
65614;BME280;52283;49.292;10.572;2023-04-28T07:33:23;96176.47;;;10.14;100.00
65614;BME280;52283;49.292;10.572;2023-04-28T07:35:50;96180.06;;;10.43;100.00
65614;BME280;52283;49.292;10.572;2023-04-28T07:38:17;96184.38;;;10.44;100.00
65614;BME280;52283;49.292;10.572;2023-04-28T07:40:44;96185.63;;;10.37;100.00
65614;BME280;52283;49.292;10.572;2023-04-28T07:43:12;96175.47;;;10.00;100.00
65614;BME280;52283;49.292;10.572;2023-04-28T07:45:39;96163.25;;;9.81;100.00
65614;BME280;52283;49.292;10.572;2023-04-28T07:48:06;96154.13;;;10.20;100.00
65614;BME280;52283;49.292;10.572;2023-04-28T07:50:32;96153.63;;;10.04;100.00
65614;BME280;52283;49.292;10.572;2023-04-28T07:52:59;96127.22;;;9.94;100.00
65614;BME280;52283;49.292;10.572;2023-04-28T07:55:25;96117.56;;;9.78;100.00
65614;BME280;52283;49.292;10.572;2023-04-28T07:57:52;96118.88;;;9.83;100.00
65614;BME280;52283;49.292;10.572;2023-04-28T08:00:20;96133.31;;;9.82;100.00
65614;BME280;52283;49.292;10.572;2023-04-28T08:02:47;96147.31;;;10.32;100.00
65614;BME280;52283;49.292;10.572;2023-04-28T08:05:14;96135.38;;;10.31;100.00
65614;BME280;52283;49.292;10.572;2023-04-28T08:07:41;96124.97;;;10.04;100.00
65614;BME280;52283;49.292;10.572;2023-04-28T08:10:08;96119.38;;;10.04;100.00
65614;BME280;52283;49.292;10.572;2023-04-28T08:12:35;96110.50;;;10.00;100.00
65614;BME280;52283;49.292;10.572;2023-04-28T08:15:01;96120.66;;;10.31;100.00
65614;BME280;52283;49.292;10.572;2023-04-28T08:17:30;96118.84;;;10.33;100.00
65614;BME280;52283;49.292;10.572;2023-04-28T08:19:56;96121.91;;;10.35;100.00
65614;BME280;52283;49.292;10.572;2023-04-28T08:22:23;96116.06;;;10.11;100.00
65614;BME280;52283;49.292;10.572;2023-04-28T08:24:50;96129.50;;;10.52;100.00
65614;BME280;52283;49.292;10.572;2023-04-28T08:27:16;96127.69;;;10.71;100.00
65614;BME280;52283;49.292;10.572;2023-04-28T08:29:43;96134.00;;;10.77;100.00
65614;BME280;52283;49.292;10.572;2023-04-28T08:32:09;96127.91;;;10.73;100.00
65614;BME280;52283;49.292;10.572;2023-04-28T08:34:37;96127.63;;;10.82;100.00
65614;BME280;52283;49.292;10.572;2023-04-28T08:37:03;96127.34;;;10.91;100.00
65614;BME280;52283;49.292;10.572;2023-04-28T08:39:31;96123.34;;;10.76;100.00
65614;BME280;52283;49.292;10.572;2023-04-28T08:41:58;96123.06;;;10.85;100.00
65614;BME280;52283;49.292;10.572;2023-04-28T08:44:25;96105.66;;;10.28;100.00
65614;BME280;52283;49.292;10.572;2023-04-28T08:46:55;96105.84;;;10.69;100.00
65614;BME280;52283;49.292;10.572;2023-04-28T08:49:29;96107.63;;;10.56;100.00
65614;BME280;52283;49.292;10.572;2023-04-28T08:52:02;96112.47;;;10.55;100.00
65614;BME280;52283;49.292;10.572;2023-04-28T08:54:34;96121.03;;;10.80;100.00
65614;BME280;52283;49.292;10.572;2023-04-28T08:57:01;96120.06;;;10.72;100.00
65614;BME280;52283;49.292;10.572;2023-04-28T08:59:29;96116.53;;;10.65;100.00
65614;BME280;52283;49.292;10.572;2023-04-28T09:01:56;96102.81;;;10.56;100.00
65614;BME280;52283;49.292;10.572;2023-04-28T09:04:23;96108.09;;;10.77;100.00
65614;BME280;52283;49.292;10.572;2023-04-28T09:06:50;96112.38;;;10.89;100.00
65614;BME280;52283;49.292;10.572;2023-04-28T09:09:22;96118.75;;;10.78;100.00
65614;BME280;52283;49.292;10.572;2023-04-28T09:11:51;96117.78;;;10.59;100.00
65614;BME280;52283;49.292;10.572;2023-04-28T09:14:18;96111.19;;;10.67;100.00
65614;BME280;52283;49.292;10.572;2023-04-28T09:16:44;96114.28;;;10.47;100.00
65614;BME280;52283;49.292;10.572;2023-04-28T09:19:11;96107.66;;;10.50;100.00
65614;BME280;52283;49.292;10.572;2023-04-28T09:21:45;96097.72;;;10.66;100.00
65614;BME280;52283;49.292;10.572;2023-04-28T09:24:26;96094.22;;;10.43;100.00
65614;BME280;52283;49.292;10.572;2023-04-28T09:26:53;96082.47;;;10.61;100.00
65614;BME280;52283;49.292;10.572;2023-04-28T09:29:19;96099.19;;;10.78;100.00
65614;BME280;52283;49.292;10.572;2023-04-28T09:31:46;96105.22;;;10.99;100.00
65614;BME280;52283;49.292;10.572;2023-04-28T09:34:12;96106.94;;;11.13;100.00
65614;BME280;52283;49.292;10.572;2023-04-28T09:36:39;96108.91;;;11.24;100.00
65614;BME280;52283;49.292;10.572;2023-04-28T09:39:06;96117.34;;;11.13;100.00
65614;BME280;52283;49.292;10.572;2023-04-28T09:41:37;96105.94;;;11.11;100.00
65614;BME280;52283;49.292;10.572;2023-04-28T09:44:12;96108.97;;;11.13;100.00
65614;BME280;52283;49.292;10.572;2023-04-28T09:46:38;96113.34;;;10.97;100.00
65614;BME280;52283;49.292;10.572;2023-04-28T09:49:05;96114.56;;;11.13;100.00
65614;BME280;52283;49.292;10.572;2023-04-28T09:51:33;96103.81;;;11.22;100.00
65614;BME280;52283;49.292;10.572;2023-04-28T09:54:00;96103.22;;;11.41;100.00
65614;BME280;52283;49.292;10.572;2023-04-28T09:56:28;96102.81;;;11.67;100.00
65614;BME280;52283;49.292;10.572;2023-04-28T09:58:57;96098.75;;;11.62;100.00
65614;BME280;52283;49.292;10.572;2023-04-28T10:01:24;96101.47;;;11.79;100.00
65614;BME280;52283;49.292;10.572;2023-04-28T10:03:53;96096.34;;;11.83;100.00
65614;BME280;52283;49.292;10.572;2023-04-28T10:06:21;96089.91;;;11.94;100.00
65614;BME280;52283;49.292;10.572;2023-04-28T10:08:49;96100.53;;;11.65;100.00
65614;BME280;52283;49.292;10.572;2023-04-28T10:11:16;96084.94;;;11.75;100.00
65614;BME280;52283;49.292;10.572;2023-04-28T10:13:43;96074.13;;;11.96;100.00
65614;BME280;52283;49.292;10.572;2023-04-28T10:16:12;96064.97;;;11.96;100.00
65614;BME280;52283;49.292;10.572;2023-04-28T10:18:39;96059.66;;;11.92;100.00
65614;BME280;52283;49.292;10.572;2023-04-28T10:21:07;96058.06;;;11.97;100.00
65614;BME280;52283;49.292;10.572;2023-04-28T10:23:46;96068.75;;;11.98;100.00
65614;BME280;52283;49.292;10.572;2023-04-28T10:26:17;96064.06;;;12.12;100.00
65614;BME280;52283;49.292;10.572;2023-04-28T10:28:46;96076.81;;;12.07;100.00
65614;BME280;52283;49.292;10.572;2023-04-28T10:31:16;96065.81;;;12.15;100.00
65614;BME280;52283;49.292;10.572;2023-04-28T10:33:43;96071.31;;;11.96;100.00
65614;BME280;52283;49.292;10.572;2023-04-28T10:36:10;96071.09;;;11.94;100.00
65614;BME280;52283;49.292;10.572;2023-04-28T10:39:07;96073.06;;;12.29;100.00
65614;BME280;52283;49.292;10.572;2023-04-28T10:41:34;96066.34;;;12.38;100.00
65614;BME280;52283;49.292;10.572;2023-04-28T10:47:08;96072.91;;;12.16;100.00
65614;BME280;52283;49.292;10.572;2023-04-28T10:50:08;96078.53;;;12.40;100.00
65614;BME280;52283;49.292;10.572;2023-04-28T10:52:48;96079.19;;;12.52;100.00
65614;BME280;52283;49.292;10.572;2023-04-28T10:55:32;96081.00;;;12.49;100.00
65614;BME280;52283;49.292;10.572;2023-04-28T10:58:31;96089.97;;;12.67;100.00
65614;BME280;52283;49.292;10.572;2023-04-28T11:01:23;96074.50;;;12.60;100.00
65614;BME280;52283;49.292;10.572;2023-04-28T11:03:52;96082.28;;;12.48;100.00
65614;BME280;52283;49.292;10.572;2023-04-28T11:06:25;96076.56;;;12.35;100.00
65614;BME280;52283;49.292;10.572;2023-04-28T11:08:53;96075.97;;;12.42;100.00
65614;BME280;52283;49.292;10.572;2023-04-28T11:11:22;96074.22;;;12.64;100.00
65614;BME280;52283;49.292;10.572;2023-04-28T11:13:50;96074.97;;;12.64;100.00
65614;BME280;52283;49.292;10.572;2023-04-28T11:16:19;96068.72;;;12.77;100.00
65614;BME280;52283;49.292;10.572;2023-04-28T11:18:52;96075.97;;;12.91;100.00
65614;BME280;52283;49.292;10.572;2023-04-28T11:21:19;96086.69;;;12.87;100.00
65614;BME280;52283;49.292;10.572;2023-04-28T11:23:46;96085.97;;;13.05;100.00
65614;BME280;52283;49.292;10.572;2023-04-28T11:26:13;96082.69;;;13.01;100.00
65614;BME280;52283;49.292;10.572;2023-04-28T11:28:47;96096.56;;;13.18;100.00
65614;BME280;52283;49.292;10.572;2023-04-28T11:31:15;96097.22;;;12.81;100.00
65614;BME280;52283;49.292;10.572;2023-04-28T11:33:45;96091.13;;;13.01;100.00
65614;BME280;52283;49.292;10.572;2023-04-28T11:36:37;96101.41;;;13.18;100.00
65614;BME280;52283;49.292;10.572;2023-04-28T11:39:06;96092.00;;;12.91;100.00
65614;BME280;52283;49.292;10.572;2023-04-28T11:41:33;96098.47;;;13.04;100.00
65614;BME280;52283;49.292;10.572;2023-04-28T11:44:08;96093.53;;;12.92;100.00
65614;BME280;52283;49.292;10.572;2023-04-28T11:46:35;96091.56;;;13.05;100.00
65614;BME280;52283;49.292;10.572;2023-04-28T11:49:09;96088.13;;;13.18;100.00
65614;BME280;52283;49.292;10.572;2023-04-28T11:51:37;96098.75;;;13.25;100.00
65614;BME280;52283;49.292;10.572;2023-04-28T11:54:05;96087.22;;;13.29;100.00
65614;BME280;52283;49.292;10.572;2023-04-28T11:56:37;96086.69;;;13.49;100.00
65614;BME280;52283;49.292;10.572;2023-04-28T11:59:06;96091.91;;;13.58;100.00
65614;BME280;52283;49.292;10.572;2023-04-28T12:01:34;96082.34;;;13.48;100.00
65614;BME280;52283;49.292;10.572;2023-04-28T12:04:09;96078.88;;;13.61;100.00
65614;BME280;52283;49.292;10.572;2023-04-28T12:06:37;96088.91;;;13.88;100.00
65614;BME280;52283;49.292;10.572;2023-04-28T12:09:14;96090.50;;;13.84;100.00
65614;BME280;52283;49.292;10.572;2023-04-28T12:11:51;96084.38;;;13.66;100.00
65614;BME280;52283;49.292;10.572;2023-04-28T12:14:17;96081.38;;;13.64;100.00
65614;BME280;52283;49.292;10.572;2023-04-28T12:16:45;96082.44;;;13.61;100.00
65614;BME280;52283;49.292;10.572;2023-04-28T12:19:13;96085.81;;;13.73;100.00
65614;BME280;52283;49.292;10.572;2023-04-28T12:21:42;96093.88;;;13.63;100.00
65614;BME280;52283;49.292;10.572;2023-04-28T12:24:15;96091.84;;;13.45;100.00
65614;BME280;52283;49.292;10.572;2023-04-28T12:26:42;96098.75;;;13.63;100.00
65614;BME280;52283;49.292;10.572;2023-04-28T12:29:09;96097.34;;;13.69;100.00
65614;BME280;52283;49.292;10.572;2023-04-28T12:31:48;96099.69;;;13.84;100.00
65614;BME280;52283;49.292;10.572;2023-04-28T12:34:16;96095.50;;;13.40;100.00
65614;BME280;52283;49.292;10.572;2023-04-28T12:36:43;96085.69;;;13.28;100.00
65614;BME280;52283;49.292;10.572;2023-04-28T12:39:12;96082.59;;;13.31;100.00
65614;BME280;52283;49.292;10.572;2023-04-28T12:41:40;96081.69;;;13.23;100.00
65614;BME280;52283;49.292;10.572;2023-04-28T12:44:07;96069.47;;;13.39;100.00
65614;BME280;52283;49.292;10.572;2023-04-28T12:46:33;96079.31;;;13.27;100.00
65614;BME280;52283;49.292;10.572;2023-04-28T12:49:01;96073.13;;;13.34;100.00